Time;durP1;ratioP1;P1;durP2;ratioP2;P2;SDS_P1;SDS_P2;PMS_P1;PMS_P2;Temp;Humidity;BMP_temperature;BMP_pressure;BME280_temperature;BME280_humidity;BME280_pressure;Samples;Min_cycle;Max_cycle;Signal;HPM_P1;HPM_P2
2023/02/28 00:01:34;;;;;;;2.63;1.77;;;2.50;99.90;;;;;;5002325;28;20506;-70
2023/02/28 00:04:01;;;;;;;2.90;2.53;;;2.60;99.90;;;;;;4996375;28;20471;-70
2023/02/28 00:06:29;;;;;;;5.87;2.60;;;2.60;99.90;;;;;;5000151;28;20793;-70
2023/02/28 00:08:56;;;;;;;3.10;2.37;;;2.50;99.90;;;;;;5004310;28;20496;-70
2023/02/28 00:11:24;;;;;;;2.13;1.53;;;2.50;99.90;;;;;;5003534;28;20475;-69
2023/02/28 00:13:51;;;;;;;3.20;2.10;;;2.60;99.90;;;;;;5000287;28;20500;-69
2023/02/28 00:16:20;;;;;;;3.47;2.20;;;2.50;99.90;;;;;;5008480;28;21025;-69
2023/02/28 00:18:48;;;;;;;3.83;1.70;;;2.60;99.90;;;;;;5000884;28;20544;-70
2023/02/28 00:21:15;;;;;;;3.80;2.40;;;2.50;99.90;;;;;;4999753;28;20447;-70
2023/02/28 00:23:43;;;;;;;2.07;1.50;;;2.50;99.90;;;;;;5002113;28;21209;-70
2023/02/28 00:26:10;;;;;;;2.33;1.77;;;2.50;99.90;;;;;;5004421;28;20531;-70
2023/02/28 00:28:37;;;;;;;2.07;1.57;;;2.40;99.90;;;;;;5004785;28;20456;-70
2023/02/28 00:31:04;;;;;;;2.43;1.77;;;2.40;99.90;;;;;;4999624;28;20879;-71
2023/02/28 00:33:31;;;;;;;2.13;1.60;;;2.30;99.90;;;;;;5010600;28;20465;-71
2023/02/28 00:36:06;;;;;;;3.17;2.10;;;2.30;99.90;;;;;;5003160;28;20460;-71
2023/02/28 00:38:33;;;;;;;5.63;1.70;;;2.30;99.90;;;;;;5004394;28;20927;-71
2023/02/28 00:41:04;;;;;;;3.27;1.63;;;2.20;99.90;;;;;;4996851;28;20491;-71
2023/02/28 00:43:33;;;;;;;1.60;1.17;;;2.20;99.90;;;;;;5003305;28;20547;-71
2023/02/28 00:46:00;;;;;;;3.43;1.53;;;2.30;99.90;;;;;;5005531;28;20436;-71
2023/02/28 00:48:27;;;;;;;2.20;1.27;;;2.20;99.90;;;;;;5000191;28;20479;-70
2023/02/28 00:50:55;;;;;;;1.13;1.03;;;2.20;99.90;;;;;;5001680;28;21020;-71
2023/02/28 00:53:21;;;;;;;6.67;2.20;;;2.20;99.90;;;;;;4998915;28;20796;-70
2023/02/28 00:55:49;;;;;;;1.50;1.40;;;2.20;99.90;;;;;;5003436;28;20880;-70
2023/02/28 00:58:18;;;;;;;2.93;1.83;;;2.20;99.90;;;;;;5004338;28;20428;-70
2023/02/28 01:00:48;;;;;;;1.97;1.63;;;2.20;99.90;;;;;;5005787;28;20552;-70
2023/02/28 01:03:16;;;;;;;1.67;1.23;;;2.20;99.90;;;;;;5006442;28;20554;-70
2023/02/28 01:05:43;;;;;;;3.27;2.00;;;2.20;99.90;;;;;;5009370;28;20443;-70
2023/02/28 01:08:10;;;;;;;5.00;1.57;;;2.10;99.90;;;;;;5011767;28;20459;-69
2023/02/28 01:10:38;;;;;;;2.60;1.63;;;2.10;99.90;;;;;;5006411;28;20524;-69
2023/02/28 01:13:05;;;;;;;1.33;1.00;;;2.10;99.90;;;;;;5005887;28;20534;-70
2023/02/28 01:15:34;;;;;;;1.50;1.27;;;2.10;99.90;;;;;;5002603;28;20531;-70
2023/02/28 01:18:00;;;;;;;1.23;1.13;;;2.10;99.90;;;;;;5005237;28;20481;-71
2023/02/28 01:20:27;;;;;;;2.60;1.30;;;2.10;99.90;;;;;;5005514;28;20472;-71
2023/02/28 01:22:54;;;;;;;1.77;1.67;;;2.00;99.90;;;;;;5021450;28;20503;-70
2023/02/28 01:25:21;;;;;;;3.63;1.50;;;2.10;99.90;;;;;;5011695;28;20576;-71
2023/02/28 01:27:48;;;;;;;1.50;1.33;;;2.00;99.90;;;;;;5009832;28;20486;-71
2023/02/28 01:30:15;;;;;;;2.00;1.80;;;2.00;99.90;;;;;;5004209;28;20526;-71
2023/02/28 01:32:43;;;;;;;12.00;2.00;;;2.10;99.90;;;;;;5011866;28;20879;-71
2023/02/28 01:35:10;;;;;;;2.60;2.40;;;2.00;99.90;;;;;;5006549;28;20443;-71
2023/02/28 01:37:37;;;;;;;2.23;1.30;;;1.90;99.90;;;;;;5003545;28;20507;-70
2023/02/28 01:40:05;;;;;;;1.63;1.23;;;1.90;99.90;;;;;;5005863;28;20457;-70
2023/02/28 01:42:32;;;;;;;2.80;1.73;;;1.80;99.90;;;;;;5007470;28;20559;-70
2023/02/28 01:45:04;;;;;;;2.40;2.03;;;1.60;99.90;;;;;;5005437;28;20543;-71
2023/02/28 01:47:34;;;;;;;3.07;1.90;;;1.60;99.90;;;;;;5007788;28;20482;-71
2023/02/28 01:50:05;;;;;;;3.27;1.57;;;1.50;99.90;;;;;;5011489;28;20491;-71
2023/02/28 01:52:33;;;;;;;2.37;2.17;;;1.50;99.90;;;;;;5004148;28;20482;-70
2023/02/28 01:55:03;;;;;;;7.53;1.87;;;1.50;99.90;;;;;;5008599;28;20495;-70
2023/02/28 01:57:37;;;;;;;3.20;1.83;;;1.30;99.90;;;;;;5008247;28;20909;-69
2023/02/28 02:00:09;;;;;;;2.17;1.33;;;1.10;99.90;;;;;;5010315;28;20457;-70
2023/02/28 02:02:38;;;;;;;2.37;1.63;;;1.00;99.90;;;;;;5004737;28;20490;-70
2023/02/28 02:05:09;;;;;;;1.30;1.20;;;1.00;99.90;;;;;;5008639;28;20492;-72
2023/02/28 02:07:38;;;;;;;5.87;1.37;;;1.00;99.90;;;;;;5007383;28;20474;-70
2023/02/28 02:10:14;;;;;;;1.77;1.30;;;1.00;99.90;;;;;;5005002;28;20438;-71
2023/02/28 02:13:14;;;;;;;1.50;1.40;;;0.90;99.90;;;;;;5011597;28;20902;-70
2023/02/28 02:15:50;;;;;;;3.00;1.90;;;0.70;99.90;;;;;;5010369;28;20456;-70
2023/02/28 02:18:28;;;;;;;1.17;1.07;;;0.60;99.90;;;;;;5011755;28;20456;-70
2023/02/28 02:21:32;;;;;;;1.40;1.20;;;0.60;99.90;;;;;;5006077;28;20543;-70
2023/02/28 02:24:48;;;;;;;2.33;2.13;;;0.60;99.90;;;;;;5002742;28;20507;-70
2023/02/28 02:27:40;;;;;;;3.13;2.00;;;0.70;99.90;;;;;;5012247;28;20520;-69
2023/02/28 02:30:31;;;;;;;3.40;1.73;;;0.50;99.90;;;;;;5018306;28;20466;-69
2023/02/28 02:33:30;;;;;;;2.03;1.47;;;0.30;99.90;;;;;;5007365;28;20537;-70
2023/02/28 02:36:05;;;;;;;2.10;2.00;;;0.30;99.90;;;;;;5000727;28;20434;-70
2023/02/28 02:38:35;;;;;;;4.30;1.77;;;0.30;99.90;;;;;;5002652;28;20515;-71
2023/02/28 02:41:15;;;;;;;3.53;1.37;;;0.20;99.90;;;;;;5008904;28;20484;-71
2023/02/28 02:43:47;;;;;;;1.67;1.43;;;0.20;99.90;;;;;;5004806;28;20568;-71
2023/02/28 02:46:19;;;;;;;1.20;1.10;;;0.10;99.90;;;;;;5002901;28;20568;-71
2023/02/28 02:48:47;;;;;;;2.33;1.93;;;0.20;99.90;;;;;;5009502;28;20457;-71
2023/02/28 02:51:19;;;;;;;2.03;1.57;;;0.10;99.90;;;;;;5007849;28;20473;-71
2023/02/28 02:53:50;;;;;;;2.90;1.93;;;0.10;99.90;;;;;;5007003;28;20432;-71
2023/02/28 02:56:20;;;;;;;13.70;1.70;;;0.10;99.90;;;;;;5008415;28;20547;-71
2023/02/28 02:58:49;;;;;;;2.60;1.80;;;0.00;99.90;;;;;;5010527;28;20801;-70
2023/02/28 03:01:27;;;;;;;2.17;1.63;;;0.10;99.90;;;;;;5007122;28;20560;-70
2023/02/28 03:03:57;;;;;;;5.37;1.47;;;0.20;99.90;;;;;;5011762;28;20946;-70
2023/02/28 03:06:25;;;;;;;1.60;1.50;;;0.20;99.90;;;;;;5009957;28;20903;-69
2023/02/28 03:08:53;;;;;;;3.10;1.43;;;0.10;99.90;;;;;;5006323;28;20442;-70
2023/02/28 03:11:21;;;;;;;2.77;2.30;;;0.00;99.90;;;;;;5006707;28;20429;-70
2023/02/28 03:14:13;;;;;;;1.80;1.67;;;-0.10;99.90;;;;;;5004387;28;20460;-70
2023/02/28 03:16:56;;;;;;;2.03;1.87;;;0.00;99.90;;;;;;4998772;28;20578;-70
2023/02/28 03:19:40;;;;;;;1.57;1.40;;;-0.10;99.90;;;;;;5004752;28;20472;-69
2023/02/28 03:22:20;;;;;;;2.80;1.43;;;-0.10;99.90;;;;;;5008692;28;20474;-70
2023/02/28 03:24:55;;;;;;;1.57;1.20;;;-0.20;99.90;;;;;;5010702;28;20547;-70
2023/02/28 03:27:28;;;;;;;2.63;1.70;;;-0.30;99.90;;;;;;5001915;28;20537;-70
2023/02/28 03:30:01;;;;;;;3.13;1.30;;;-0.20;99.90;;;;;;5009440;28;20532;-70
2023/02/28 03:32:33;;;;;;;2.50;1.43;;;-0.20;99.90;;;;;;5007280;28;21069;-70
2023/02/28 03:35:07;;;;;;;3.33;1.37;;;-0.20;99.90;;;;;;5002456;28;20445;-70
2023/02/28 03:37:38;;;;;;;1.50;1.40;;;-0.20;99.90;;;;;;5008430;28;20493;-70
2023/02/28 03:40:12;;;;;;;2.93;2.70;;;-0.30;99.90;;;;;;5009289;28;20433;-70
2023/02/28 03:42:42;;;;;;;1.80;1.70;;;-0.30;99.90;;;;;;5000020;28;20464;-70
2023/02/28 03:45:14;;;;;;;6.07;2.10;;;-0.20;99.90;;;;;;5007986;28;20424;-70
2023/02/28 03:47:46;;;;;;;1.50;1.40;;;-0.20;99.90;;;;;;5005884;28;20480;-70
2023/02/28 03:50:19;;;;;;;2.37;2.17;;;-0.10;99.90;;;;;;5001360;28;20424;-70
2023/02/28 03:52:51;;;;;;;2.70;1.63;;;-0.30;99.90;;;;;;5000204;28;20460;-70
2023/02/28 03:55:19;;;;;;;2.20;2.00;;;-0.30;99.90;;;;;;4997406;28;20472;-70
2023/02/28 03:57:59;;;;;;;2.53;2.33;;;-0.40;99.90;;;;;;4996748;28;20601;-70
2023/02/28 04:00:32;;;;;;;1.60;1.40;;;-0.50;99.90;;;;;;4997375;28;20458;-70
2023/02/28 04:02:59;;;;;;;6.73;1.80;;;-0.50;99.90;;;;;;5002643;28;20461;-70
2023/02/28 04:05:27;;;;;;;1.87;1.60;;;-0.50;99.90;;;;;;5003416;28;20579;-70
2023/02/28 04:08:03;;;;;;;2.00;1.90;;;-0.50;99.90;;;;;;5005541;28;20572;-70
2023/02/28 04:10:30;;;;;;;3.57;3.23;;;-0.50;99.90;;;;;;5004720;28;20458;-70
2023/02/28 04:12:57;;;;;;;1.17;1.07;;;-0.40;99.90;;;;;;5002918;28;20536;-70
2023/02/28 04:15:24;;;;;;;3.47;1.80;;;-0.50;99.90;;;;;;5004662;28;20828;-70
2023/02/28 04:17:51;;;;;;;2.97;1.80;;;-0.60;99.90;;;;;;5003398;28;20552;-71
2023/02/28 04:20:19;;;;;;;1.60;1.50;;;-0.70;99.90;;;;;;5009540;28;20490;-71
2023/02/28 04:22:46;;;;;;;3.57;1.73;;;-0.70;99.90;;;;;;5004640;28;20453;-69
2023/02/28 04:25:15;;;;;;;4.53;2.50;;;-0.60;99.90;;;;;;5008317;28;20866;-70
2023/02/28 04:27:44;;;;;;;2.20;1.73;;;-0.60;99.90;;;;;;5001912;28;20452;-71
2023/02/28 04:30:12;;;;;;;1.97;1.83;;;-0.60;99.90;;;;;;5000578;28;20476;-71
2023/02/28 04:32:39;;;;;;;6.30;1.97;;;-0.60;99.90;;;;;;5008055;28;20547;-70
2023/02/28 04:35:07;;;;;;;3.17;2.07;;;-0.70;99.90;;;;;;5003512;28;20450;-71
2023/02/28 04:37:36;;;;;;;1.20;1.10;;;-0.70;99.90;;;;;;5000131;28;20539;-71
2023/02/28 04:40:04;;;;;;;2.77;1.87;;;-0.90;99.90;;;;;;5005019;28;20471;-71
2023/02/28 04:42:35;;;;;;;1.90;1.80;;;-0.80;99.90;;;;;;5010755;28;20577;-70
2023/02/28 04:45:03;;;;;;;2.07;1.67;;;-0.70;99.90;;;;;;5019235;28;20513;-69
2023/02/28 04:47:30;;;;;;;3.53;1.87;;;-0.70;99.90;;;;;;5024173;28;20550;-70
2023/02/28 04:49:57;;;;;;;2.33;2.17;;;-0.60;99.90;;;;;;5003605;28;20439;-71
2023/02/28 04:52:24;;;;;;;3.63;2.33;;;-0.70;99.90;;;;;;5007811;28;20603;-70
2023/02/28 04:54:51;;;;;;;2.37;2.13;;;-0.80;99.90;;;;;;5003825;28;20468;-70
2023/02/28 04:57:18;;;;;;;1.93;1.67;;;-0.80;99.90;;;;;;5002775;28;21019;-70
2023/02/28 04:59:46;;;;;;;2.90;2.50;;;-0.80;99.90;;;;;;5006045;28;20548;-70
2023/02/28 05:02:13;;;;;;;1.83;1.73;;;-0.80;99.90;;;;;;5009722;28;20839;-70
2023/02/28 05:04:40;;;;;;;2.33;1.97;;;-0.90;99.90;;;;;;4973444;28;20545;-69
2023/02/28 05:07:07;;;;;;;2.17;1.97;;;-0.80;99.90;;;;;;5012778;28;20482;-70
2023/02/28 05:09:34;;;;;;;2.40;2.13;;;-0.80;99.90;;;;;;5002066;28;20971;-70
2023/02/28 05:12:01;;;;;;;2.50;1.57;;;-1.00;99.90;;;;;;5009584;28;20550;-69
2023/02/28 05:14:28;;;;;;;1.20;1.10;;;-1.00;99.90;;;;;;5004487;28;20524;-70
2023/02/28 05:16:56;;;;;;;2.30;1.60;;;-1.00;99.90;;;;;;5004901;28;20566;-70
2023/02/28 05:19:23;;;;;;;2.40;1.53;;;-1.20;99.90;;;;;;5007098;28;20511;-70
2023/02/28 05:21:52;;;;;;;6.03;2.90;;;-1.20;99.90;;;;;;5004765;28;20467;-70
2023/02/28 05:24:22;;;;;;;2.07;1.87;;;-1.20;99.90;;;;;;5007562;28;20789;-70
2023/02/28 05:26:49;;;;;;;2.67;1.90;;;-1.00;99.90;;;;;;5007364;28;20550;-69
2023/02/28 05:29:20;;;;;;;1.57;1.33;;;-1.10;99.90;;;;;;5018284;28;20549;-70
2023/02/28 05:31:47;;;;;;;3.90;1.90;;;-1.20;99.90;;;;;;5002516;28;20436;-70
2023/02/28 05:34:15;;;;;;;1.37;1.27;;;-1.40;99.90;;;;;;5003006;28;20462;-70
2023/02/28 05:36:45;;;;;;;2.13;1.80;;;-1.40;99.90;;;;;;4999644;28;20587;-70
2023/02/28 05:39:13;;;;;;;4.13;2.53;;;-1.30;99.90;;;;;;4984658;28;20521;-70
2023/02/28 05:41:41;;;;;;;5.57;3.67;;;-1.40;99.90;;;;;;5002944;28;21213;-70
2023/02/28 05:44:11;;;;;;;5.77;1.63;;;-1.40;99.90;;;;;;5001058;28;20502;-71
2023/02/28 05:46:38;;;;;;;2.20;2.00;;;-1.40;99.90;;;;;;5003916;28;21030;-70
2023/02/28 05:49:06;;;;;;;3.10;2.30;;;-1.30;99.90;;;;;;5006444;28;20460;-69
2023/02/28 05:51:39;;;;;;;2.90;1.53;;;-1.30;99.90;;;;;;5002841;28;20449;-70
2023/02/28 05:54:06;;;;;;;2.90;2.07;;;-1.40;99.90;;;;;;4991612;28;20821;-71
2023/02/28 05:56:34;;;;;;;1.83;1.73;;;-1.50;99.90;;;;;;5004748;28;20540;-70
2023/02/28 05:59:01;;;;;;;7.57;1.80;;;-1.40;99.90;;;;;;5006342;28;20485;-70
2023/02/28 06:01:34;;;;;;;1.73;1.40;;;-1.40;99.90;;;;;;5005520;28;20478;-70
2023/02/28 06:04:02;;;;;;;13.20;2.07;;;-1.30;99.90;;;;;;5004387;28;20440;-70
2023/02/28 06:06:30;;;;;;;5.73;4.10;;;-1.20;99.90;;;;;;5010852;28;20473;-72
2023/02/28 06:08:58;;;;;;;2.10;2.00;;;-1.30;99.90;;;;;;5011602;28;20420;-71
2023/02/28 06:11:26;;;;;;;3.47;1.93;;;-1.30;99.90;;;;;;5005793;28;20990;-69
2023/02/28 06:13:56;;;;;;;2.40;1.57;;;-1.40;99.90;;;;;;5005315;28;20775;-70
2023/02/28 06:16:23;;;;;;;3.73;3.43;;;-1.40;99.90;;;;;;5004596;28;20536;-70
2023/02/28 06:18:50;;;;;;;5.30;2.80;;;-1.40;99.90;;;;;;4978067;28;20468;-70
2023/02/28 06:21:17;;;;;;;2.17;1.97;;;-1.30;99.90;;;;;;5002430;28;20458;-72
2023/02/28 06:23:44;;;;;;;2.40;1.70;;;-1.40;99.90;;;;;;5002661;28;21015;-70
2023/02/28 06:26:12;;;;;;;8.33;3.10;;;-1.50;99.90;;;;;;5010478;28;20459;-70
2023/02/28 06:28:39;;;;;;;2.60;2.37;;;-1.50;99.90;;;;;;5007703;28;20459;-70
2023/02/28 06:31:08;;;;;;;1.63;1.47;;;-1.50;99.90;;;;;;5002749;28;20440;-70
2023/02/28 06:33:35;;;;;;;2.73;2.00;;;-1.50;99.90;;;;;;5006966;28;20428;-70
2023/02/28 06:36:02;;;;;;;7.33;2.10;;;-1.60;99.90;;;;;;5003437;28;20489;-69
2023/02/28 06:38:29;;;;;;;2.33;2.10;;;-1.50;99.90;;;;;;5011888;28;20445;-70
2023/02/28 06:40:57;;;;;;;2.30;1.97;;;-1.50;99.90;;;;;;5007896;28;20460;-71
2023/02/28 06:43:27;;;;;;;3.83;2.17;;;-1.60;99.90;;;;;;5008102;28;20543;-70
2023/02/28 06:45:56;;;;;;;2.97;2.57;;;-1.50;99.90;;;;;;5001227;28;20481;-71
2023/02/28 06:48:23;;;;;;;2.87;2.17;;;-1.40;99.90;;;;;;5002048;28;20572;-71
2023/02/28 06:50:51;;;;;;;9.23;1.97;;;-1.40;99.90;;;;;;5014206;28;20470;-71
2023/02/28 06:53:18;;;;;;;7.00;5.17;;;-1.50;99.90;;;;;;5011051;28;20471;-71
2023/02/28 06:55:45;;;;;;;3.73;2.07;;;-1.30;99.90;;;;;;5004510;28;20473;-70
2023/02/28 06:58:15;;;;;;;2.93;1.40;;;-1.20;99.90;;;;;;5010026;28;20428;-71
2023/02/28 07:00:45;;;;;;;2.90;2.00;;;-1.10;99.90;;;;;;5002681;28;20492;-71
2023/02/28 07:03:15;;;;;;;3.47;2.70;;;-1.00;99.90;;;;;;5014372;28;20533;-70
2023/02/28 07:05:42;;;;;;;2.53;2.33;;;-0.70;99.90;;;;;;5008624;28;20955;-71
2023/02/28 07:08:09;;;;;;;3.13;2.83;;;-0.40;99.90;;;;;;5005708;28;20460;-71
2023/02/28 07:10:38;;;;;;;2.80;2.60;;;-0.30;99.90;;;;;;5009883;28;21068;-71
2023/02/28 07:13:07;;;;;;;3.83;2.07;;;-0.20;99.90;;;;;;5019551;28;20464;-69
2023/02/28 07:15:37;;;;;;;7.13;2.70;;;-0.30;99.90;;;;;;5013707;28;20430;-71
2023/02/28 07:18:05;;;;;;;38.37;2.97;;;-0.50;99.90;;;;;;5008101;28;20463;-71
2023/02/28 07:20:32;;;;;;;10.93;3.57;;;-0.50;99.90;;;;;;4999223;28;20536;-71
2023/02/28 07:23:00;;;;;;;3.67;1.93;;;-0.40;99.90;;;;;;5006045;28;20453;-70
2023/02/28 07:25:28;;;;;;;3.00;2.07;;;-0.20;99.90;;;;;;4999874;28;20463;-71
2023/02/28 07:27:58;;;;;;;4.67;2.50;;;-0.10;99.90;;;;;;5008720;28;20948;-71
2023/02/28 07:30:25;;;;;;;2.43;1.90;;;0.10;99.90;;;;;;5006505;28;20469;-71
2023/02/28 07:32:54;;;;;;;5.13;2.27;;;0.20;99.90;;;;;;5002131;28;20454;-71
2023/02/28 07:35:22;;;;;;;3.97;2.77;;;0.10;99.90;;;;;;5008693;28;20452;-71
2023/02/28 07:37:51;;;;;;;7.53;3.47;;;0.20;99.90;;;;;;5006715;28;20807;-71
2023/02/28 07:40:18;;;;;;;3.53;3.23;;;0.40;99.90;;;;;;5008268;28;20566;-71
2023/02/28 07:42:48;;;;;;;2.50;2.17;;;0.60;99.90;;;;;;5005905;28;20455;-71
2023/02/28 07:45:15;;;;;;;4.57;2.10;;;0.70;99.90;;;;;;4999000;28;20577;-71
2023/02/28 07:47:43;;;;;;;3.50;2.33;;;1.10;99.90;;;;;;4956941;28;20556;-71
2023/02/28 07:50:12;;;;;;;11.10;3.13;;;1.20;99.90;;;;;;5007309;28;20574;-71
2023/02/28 07:52:41;;;;;;;3.73;2.47;;;1.20;99.90;;;;;;4994464;28;20491;-72
2023/02/28 07:55:10;;;;;;;4.30;2.30;;;1.20;99.90;;;;;;4955573;28;20430;-71
2023/02/28 07:57:37;;;;;;;3.50;2.60;;;1.40;99.90;;;;;;4999919;28;20837;-71
2023/02/28 08:00:06;;;;;;;6.37;3.00;;;1.60;99.90;;;;;;5003574;28;20521;-72
2023/02/28 08:02:36;;;;;;;5.77;3.77;;;2.40;99.90;;;;;;4996333;28;20497;-72
2023/02/28 08:05:04;;;;;;;13.67;4.23;;;3.00;99.90;;;;;;4998687;28;20477;-72
2023/02/28 08:07:34;;;;;;;13.30;3.70;;;2.80;99.90;;;;;;5005353;28;20849;-71
2023/02/28 08:10:05;;;;;;;9.60;3.93;;;3.00;99.90;;;;;;5002739;28;20457;-71
2023/02/28 08:12:32;;;;;;;5.13;4.40;;;3.40;99.90;;;;;;4996164;28;20444;-71
2023/02/28 08:14:59;;;;;;;7.30;4.00;;;3.50;99.90;;;;;;4982297;28;20429;-71
2023/02/28 08:17:26;;;;;;;9.60;3.00;;;3.50;99.90;;;;;;5006128;28;20515;-71
2023/02/28 08:19:53;;;;;;;4.73;3.40;;;4.10;99.90;;;;;;5010098;28;20977;-71
2023/02/28 08:22:20;;;;;;;3.63;3.17;;;4.50;99.90;;;;;;5005306;28;21009;-69
2023/02/28 08:24:49;;;;;;;10.63;4.67;;;4.70;99.90;;;;;;5009976;28;20826;-69
2023/02/28 08:27:17;;;;;;;4.77;3.90;;;5.10;99.90;;;;;;5013354;28;20515;-71
2023/02/28 08:29:44;;;;;;;3.87;2.93;;;6.00;99.90;;;;;;5007579;28;20476;-70
2023/02/28 08:32:11;;;;;;;13.23;4.17;;;6.90;99.90;;;;;;5007788;28;20431;-71
2023/02/28 08:34:40;;;;;;;6.23;4.43;;;7.40;99.90;;;;;;5002557;28;20515;-70
2023/02/28 08:37:07;;;;;;;8.07;3.10;;;7.40;99.90;;;;;;5003618;28;20457;-70
2023/02/28 08:39:37;;;;;;;3.97;3.00;;;7.30;99.30;;;;;;5005738;28;23342;-71
2023/02/28 08:42:05;;;;;;;5.60;4.07;;;7.50;99.00;;;;;;5007604;28;20526;-71
2023/02/28 08:44:34;;;;;;;5.83;3.73;;;7.70;98.10;;;;;;5003182;28;20601;-70
2023/02/28 08:47:01;;;;;;;5.43;3.73;;;8.10;98.10;;;;;;5004847;28;20507;-71
2023/02/28 08:49:28;;;;;;;4.83;3.07;;;9.10;96.40;;;;;;5004861;28;20448;-71
2023/02/28 08:51:56;;;;;;;4.43;3.53;;;9.90;93.70;;;;;;5004743;28;20479;-70
2023/02/28 08:54:24;;;;;;;5.30;2.93;;;10.30;91.50;;;;;;5014457;28;20416;-70
2023/02/28 08:56:51;;;;;;;4.90;3.57;;;10.90;90.30;;;;;;5007785;28;20563;-71
2023/02/28 08:59:18;;;;;;;5.63;2.17;;;11.50;83.70;;;;;;5005340;28;20469;-71
2023/02/28 09:01:46;;;;;;;4.33;2.57;;;11.70;78.20;;;;;;5004671;28;20466;-71
2023/02/28 09:04:13;;;;;;;2.77;2.57;;;11.30;76.90;;;;;;5004846;28;20487;-71
2023/02/28 09:06:41;;;;;;;3.10;2.03;;;10.80;73.40;;;;;;5004426;28;20568;-70
2023/02/28 09:09:09;;;;;;;5.37;3.10;;;10.50;76.40;;;;;;5004550;28;20473;-71
2023/02/28 09:11:36;;;;;;;5.53;2.70;;;11.10;74.50;;;;;;5000025;28;20886;-70
2023/02/28 09:14:04;;;;;;;4.07;1.93;;;11.30;70.90;;;;;;5009040;28;20465;-71
2023/02/28 09:16:32;;;;;;;2.47;2.00;;;11.40;69.50;;;;;;5007448;28;21003;-71
2023/02/28 09:19:01;;;;;;;2.58;2.38;;;11.40;67.90;;;;;;4990271;28;1155786;-70
2023/02/28 09:21:29;;;;;;;2.47;2.00;;;11.40;68.20;;;;;;5011256;28;20210;-71
2023/02/28 09:23:57;;;;;;;5.30;1.70;;;11.10;65.70;;;;;;5007201;28;20462;-71
2023/02/28 09:26:26;;;;;;;2.70;2.00;;;10.50;66.80;;;;;;5002164;28;20481;-70
2023/02/28 09:28:56;;;;;;;3.37;1.90;;;10.70;69.20;;;;;;5005870;28;20540;-71
2023/02/28 09:31:25;;;;;;;6.70;2.60;;;11.60;66.20;;;;;;5003263;28;20466;-71
2023/02/28 09:33:54;;;;;;;2.63;2.43;;;11.40;65.60;;;;;;4998944;28;21008;-71
2023/02/28 09:36:24;;;;;;;2.67;2.23;;;11.80;66.30;;;;;;5008251;28;20929;-71
2023/02/28 09:38:52;;;;;;;2.50;2.00;;;12.00;64.70;;;;;;5021906;28;20452;-70
2023/02/28 09:41:22;;;;;;;2.70;1.80;;;11.60;63.90;;;;;;5017942;28;20457;-71
2023/02/28 09:43:54;;;;;;;2.87;2.57;;;11.50;64.40;;;;;;5009293;28;20471;-71
2023/02/28 09:46:34;;;;;;;3.37;1.70;;;12.20;65.40;;;;;;5011995;28;20580;-71
2023/02/28 09:49:06;;;;;;;3.50;3.20;;;12.00;61.20;;;;;;5006333;28;20461;-70
2023/02/28 09:51:44;;;;;;;6.00;2.40;;;11.40;60.90;;;;;;5012735;28;20516;-71
2023/02/28 09:54:18;;;;;;;3.37;1.70;;;11.30;60.40;;;;;;4977842;28;20452;-71
2023/02/28 09:56:51;;;;;;;2.27;1.97;;;11.50;59.10;;;;;;5014751;28;20845;-71
2023/02/28 09:59:31;;;;;;;7.97;3.07;;;11.60;59.60;;;;;;5014544;28;20481;-71
2023/02/28 10:02:05;;;;;;;1.97;1.57;;;11.80;59.40;;;;;;5008308;28;20815;-70
2023/02/28 10:04:42;;;;;;;2.13;1.93;;;11.80;58.30;;;;;;5008218;28;20973;-71
2023/02/28 10:07:22;;;;;;;1.10;0.80;;;11.40;58.00;;;;;;5003738;28;20473;-71
2023/02/28 10:09:54;;;;;;;3.20;1.73;;;10.90;57.90;;;;;;5007134;28;20441;-70
2023/02/28 10:12:25;;;;;;;4.53;2.50;;;11.50;59.20;;;;;;5017893;28;20465;-70
2023/02/28 10:14:56;;;;;;;3.33;1.50;;;12.40;57.70;;;;;;5015343;28;20461;-70
2023/02/28 10:17:27;;;;;;;1.87;1.67;;;12.90;57.10;;;;;;4999425;28;20830;-70
2023/02/28 10:20:07;;;;;;;1.73;1.63;;;13.30;56.90;;;;;;5005745;28;20469;-70
2023/02/28 10:22:42;;;;;;;2.07;1.50;;;12.40;55.70;;;;;;5007924;28;20460;-70
2023/02/28 10:25:19;;;;;;;1.67;1.30;;;11.80;57.30;;;;;;5003363;28;20453;-70
2023/02/28 10:27:46;;;;;;;1.20;0.90;;;12.30;55.90;;;;;;4999505;28;20539;-70
2023/02/28 10:30:15;;;;;;;1.63;1.07;;;12.00;54.70;;;;;;5008567;28;20561;-70
2023/02/28 10:32:50;;;;;;;3.20;1.30;;;11.80;55.10;;;;;;5002677;28;21024;-71
2023/02/28 10:35:20;;;;;;;1.20;0.90;;;11.60;54.30;;;;;;5007747;28;20800;-71
2023/02/28 10:37:50;;;;;;;1.63;0.93;;;11.20;53.50;;;;;;5006256;28;20512;-71
2023/02/28 10:40:32;;;;;;;10.37;1.40;;;10.50;54.40;;;;;;5005619;28;20433;-71
2023/02/28 10:43:01;;;;;;;1.50;1.20;;;10.70;54.70;;;;;;5004655;28;20453;-71
2023/02/28 10:45:31;;;;;;;2.13;1.30;;;11.20;53.50;;;;;;5002966;28;20568;-71
2023/02/28 10:48:00;;;;;;;1.80;1.07;;;11.20;53.70;;;;;;5000829;28;20603;-69
2023/02/28 10:50:34;;;;;;;1.17;0.90;;;10.40;52.50;;;;;;5005806;28;20457;-70
2023/02/28 10:53:24;;;;;;;1.73;1.60;;;10.20;53.30;;;;;;5000168;28;20462;-71
2023/02/28 10:56:00;;;;;;;1.20;1.00;;;10.20;53.80;;;;;;4974761;28;20460;-71
2023/02/28 10:58:30;;;;;;;1.10;0.87;;;10.00;54.30;;;;;;5009218;28;20977;-71
2023/02/28 11:00:58;;;;;;;2.80;1.20;;;9.60;55.40;;;;;;5009388;28;20461;-70
2023/02/28 11:03:30;;;;;;;2.30;2.03;;;9.90;55.20;;;;;;5000176;28;20465;-71
2023/02/28 11:05:58;;;;;;;8.47;2.50;;;10.50;55.00;;;;;;5006667;28;20943;-70
2023/02/28 11:08:29;;;;;;;1.67;1.20;;;10.40;54.40;;;;;;4989616;28;20504;-71
2023/02/28 11:10:58;;;;;;;1.20;1.00;;;10.10;53.40;;;;;;5005251;28;20540;-70
2023/02/28 11:13:29;;;;;;;6.93;1.90;;;10.50;53.80;;;;;;5002022;28;20829;-70
2023/02/28 11:15:58;;;;;;;2.40;1.30;;;10.70;53.50;;;;;;5005934;28;20492;-71
2023/02/28 11:18:30;;;;;;;2.20;1.37;;;10.60;53.90;;;;;;5002919;28;20662;-71
2023/02/28 11:21:00;;;;;;;1.10;1.00;;;10.00;53.70;;;;;;5000919;28;20538;-71
2023/02/28 11:23:31;;;;;;;1.80;1.43;;;10.00;55.00;;;;;;5007972;28;21040;-71
2023/02/28 11:26:01;;;;;;;2.30;1.43;;;9.60;55.60;;;;;;5010089;28;20505;-70
2023/02/28 11:28:31;;;;;;;1.90;1.33;;;8.90;55.90;;;;;;5016081;28;20485;-70
2023/02/28 11:31:22;;;;;;;1.87;1.23;;;9.60;56.90;;;;;;5014419;28;20466;-70
2023/02/28 11:33:51;;;;;;;1.10;0.90;;;10.30;55.40;;;;;;5008521;28;20445;-71
2023/02/28 11:36:24;;;;;;;1.10;0.90;;;10.00;54.90;;;;;;5012583;28;20480;-70
2023/02/28 11:38:54;;;;;;;1.40;1.30;;;9.50;56.90;;;;;;5007680;28;21083;-70
2023/02/28 11:41:35;;;;;;;1.97;1.30;;;9.20;57.20;;;;;;4999685;28;20436;-71
2023/02/28 11:44:24;;;;;;;1.40;1.00;;;9.40;57.30;;;;;;4998814;28;20461;-71
2023/02/28 11:46:55;;;;;;;1.50;1.40;;;9.80;57.20;;;;;;5004284;28;20486;-71
2023/02/28 11:49:32;;;;;;;1.73;1.07;;;8.70;57.60;;;;;;5006900;28;20461;-71
2023/02/28 11:52:03;;;;;;;1.90;1.33;;;8.80;59.20;;;;;;5004340;28;20513;-71
2023/02/28 11:54:59;;;;;;;2.20;2.00;;;9.60;58.90;;;;;;5002623;28;20459;-71
2023/02/28 11:57:37;;;;;;;1.37;1.00;;;10.20;57.10;;;;;;5001979;28;21074;-70
2023/02/28 12:00:16;;;;;;;1.83;1.67;;;10.00;56.90;;;;;;4997734;28;20961;-70
2023/02/28 12:03:00;;;;;;;2.53;1.50;;;9.60;58.80;;;;;;5005844;28;20515;-70
2023/02/28 12:05:33;;;;;;;1.53;1.33;;;10.10;58.20;;;;;;5001690;28;20523;-70
2023/02/28 12:08:14;;;;;;;1.37;1.17;;;10.60;57.70;;;;;;4996806;28;20509;-71
2023/02/28 12:10:58;;;;;;;1.70;1.40;;;11.20;58.20;;;;;;5006094;28;20533;-71
2023/02/28 12:13:29;;;;;;;2.30;2.10;;;11.90;57.70;;;;;;5002242;28;20462;-71
2023/02/28 12:16:27;;;;;;;1.93;1.70;;;12.30;57.50;;;;;;5014081;28;20458;-70
2023/02/28 12:19:11;;;;;;;1.83;1.73;;;13.00;57.70;;;;;;5002173;28;20466;-71
2023/02/28 12:21:54;;;;;;;2.43;2.20;;;13.00;56.90;;;;;;5000397;28;20552;-71
2023/02/28 12:24:58;;;;;;;1.80;1.60;;;14.00;55.10;;;;;;5008093;28;20528;-71
2023/02/28 12:27:30;;;;;;;5.37;2.27;;;13.00;55.70;;;;;;4998514;28;20573;-71
2023/02/28 12:30:01;;;;;;;1.83;1.67;;;12.10;55.70;;;;;;5005259;28;21386;-71
2023/02/28 12:32:34;;;;;;;2.30;1.60;;;10.70;56.60;;;;;;5001846;28;20489;-71
2023/02/28 12:35:12;;;;;;;2.63;2.40;;;10.70;57.90;;;;;;5009256;28;20469;-71
2023/02/28 12:37:42;;;;;;;2.30;2.10;;;11.20;58.10;;;;;;5001864;28;21006;-71
2023/02/28 12:40:15;;;;;;;2.90;1.87;;;11.00;58.00;;;;;;5002072;28;20900;-71
2023/02/28 12:42:47;;;;;;;1.27;1.03;;;11.40;58.70;;;;;;5001952;28;20541;-72
2023/02/28 12:45:20;;;;;;;2.20;1.40;;;12.10;58.00;;;;;;5002272;28;20833;-71
2023/02/28 12:47:53;;;;;;;2.10;1.40;;;11.40;58.30;;;;;;4995688;28;20548;-71
2023/02/28 12:50:21;;;;;;;1.83;1.50;;;11.40;58.70;;;;;;5002475;28;20549;-71
2023/02/28 12:52:57;;;;;;;12.10;2.20;;;12.10;58.60;;;;;;5001429;28;20967;-71
2023/02/28 12:55:34;;;;;;;4.07;1.93;;;12.40;58.90;;;;;;5004454;28;20491;-72
2023/02/28 12:58:13;;;;;;;3.10;1.33;;;12.80;57.10;;;;;;5007734;28;20452;-70
2023/02/28 13:01:05;;;;;;;1.63;1.10;;;13.00;56.40;;;;;;5012208;28;20449;-71
2023/02/28 13:04:17;;;;;;;1.80;1.43;;;12.80;56.60;;;;;;5004255;28;20446;-71
2023/02/28 13:07:03;;;;;;;2.00;1.73;;;13.00;57.20;;;;;;4973440;28;20527;-71
2023/02/28 13:09:30;;;;;;;1.97;1.40;;;13.80;57.30;;;;;;5005016;28;20481;-70
2023/02/28 13:11:58;;;;;;;3.17;2.10;;;14.40;54.70;;;;;;5004205;28;20454;-70